SCX3030 KAFW-KABQ
Flight info
| Callsign | SCX3030 |
|---|---|
| Flight time | 1h 22m |
| Altitude | 32000 |
| Route | BOTCH1 HULZE TXO RECKN COLTR4 |
| Aircraft | B738/M-SDE2E3FGHIRWXY/LB1 |
Departure
| Time | 2026-04-24 00:18 |
|---|---|
| Airport | Perot Field/Fort Worth Alliance Airport (KAFW) |
Arrival
| Time | 2026-04-24 01:40 |
|---|---|
| Airport | Albuquerque International Sunport (KABQ) |
| Time | Latitude | Longitude | Altitude | Speed | Heading |
|---|---|---|---|---|---|
| 2026-04-23 23:47 | 32.98439 | -97.32251 | 698 ft | 0 kts | 251° |
| 2026-04-24 00:08 | 32.98439 | -97.32249 | 698 ft | 2 kts | 251° |
| 2026-04-24 00:09 | 32.98448 | -97.32220 | 693 ft | 4 kts | 248° |
| 2026-04-24 00:09 | 32.98460 | -97.32191 | 697 ft | 4 kts | 231° |
| 2026-04-24 00:09 | 32.98478 | -97.32176 | 690 ft | 3 kts | 175° |
| 2026-04-24 00:09 | 32.98481 | -97.32176 | 690 ft | 2 kts | 171° |
| 2026-04-24 00:11 | 32.98469 | -97.32173 | 700 ft | 6 kts | 168° |
| 2026-04-24 00:11 | 32.98382 | -97.32155 | 694 ft | 16 kts | 172° |
| 2026-04-24 00:12 | 32.98259 | -97.32135 | 687 ft | 20 kts | 167° |
| 2026-04-24 00:12 | 32.98114 | -97.32101 | 683 ft | 23 kts | 167° |
| 2026-04-24 00:12 | 32.97976 | -97.32051 | 683 ft | 15 kts | 119° |
| 2026-04-24 00:12 | 32.98026 | -97.31973 | 682 ft | 14 kts | 356° |
| 2026-04-24 00:13 | 32.98082 | -97.31906 | 682 ft | 14 kts | 86° |
| 2026-04-24 00:13 | 32.98104 | -97.31758 | 693 ft | 23 kts | 78° |
| 2026-04-24 00:13 | 32.98143 | -97.31562 | 689 ft | 24 kts | 54° |
| 2026-04-24 00:13 | 32.98267 | -97.31555 | 695 ft | 18 kts | 352° |
| 2026-04-24 00:14 | 32.98401 | -97.31583 | 691 ft | 24 kts | 350° |
| 2026-04-24 00:14 | 32.98597 | -97.31622 | 691 ft | 30 kts | 350° |
| 2026-04-24 00:14 | 32.98798 | -97.31666 | 694 ft | 29 kts | 349° |
| 2026-04-24 00:14 | 32.98988 | -97.31702 | 700 ft | 27 kts | 350° |
| 2026-04-24 00:15 | 32.99166 | -97.31739 | 713 ft | 25 kts | 351° |
| 2026-04-24 00:15 | 32.99330 | -97.31774 | 717 ft | 24 kts | 351° |
| 2026-04-24 00:15 | 32.99519 | -97.31811 | 720 ft | 31 kts | 350° |
| 2026-04-24 00:15 | 32.99733 | -97.31856 | 723 ft | 31 kts | 350° |
| 2026-04-24 00:16 | 32.99938 | -97.31898 | 728 ft | 29 kts | 349° |
| 2026-04-24 00:16 | 33.00131 | -97.31940 | 730 ft | 27 kts | 352° |
| 2026-04-24 00:16 | 33.00313 | -97.31977 | 734 ft | 26 kts | 351° |
| 2026-04-24 00:16 | 33.00483 | -97.32008 | 739 ft | 24 kts | 352° |
| 2026-04-24 00:17 | 33.00536 | -97.32119 | 740 ft | 16 kts | 256° |
| 2026-04-24 00:17 | 33.00468 | -97.32138 | 739 ft | 12 kts | 171° |
| 2026-04-24 00:17 | 33.00179 | -97.32078 | 733 ft | 78 kts | 170° |
| 2026-04-24 00:17 | 32.99428 | -97.31924 | 717 ft | 139 kts | 170° |
| 2026-04-24 00:18 | 32.98758 | -97.31795 | 1000 ft | 151 kts | 172° |
| 2026-04-24 00:18 | 32.97298 | -97.31511 | 1950 ft | 159 kts | 173° |
| 2026-04-24 00:18 | 32.96195 | -97.31300 | 2704 ft | 166 kts | 173° |
| 2026-04-24 00:18 | 32.95006 | -97.31130 | 3075 ft | 179 kts | 186° |
| 2026-04-24 00:19 | 32.93813 | -97.31764 | 3203 ft | 204 kts | 218° |
| 2026-04-24 00:19 | 32.93188 | -97.32615 | 3541 ft | 210 kts | 227° |
| 2026-04-24 00:19 | 32.92242 | -97.34029 | 3998 ft | 218 kts | 226° |
| 2026-04-24 00:19 | 32.91252 | -97.35491 | 4229 ft | 239 kts | 227° |
| 2026-04-24 00:20 | 32.90186 | -97.37073 | 4814 ft | 248 kts | 228° |
| 2026-04-24 00:20 | 32.89115 | -97.38670 | 5686 ft | 247 kts | 229° |
| 2026-04-24 00:20 | 32.88025 | -97.40292 | 6374 ft | 253 kts | 230° |
| 2026-04-24 00:20 | 32.86924 | -97.41934 | 7123 ft | 254 kts | 230° |
| 2026-04-24 00:21 | 32.85812 | -97.43588 | 7835 ft | 257 kts | 231° |
| 2026-04-24 00:21 | 32.84684 | -97.45265 | 8535 ft | 262 kts | 231° |
| 2026-04-24 00:21 | 32.83540 | -97.46962 | 9299 ft | 263 kts | 232° |
| 2026-04-24 00:21 | 32.82421 | -97.48686 | 9971 ft | 267 kts | 239° |
| 2026-04-24 00:22 | 32.81789 | -97.50805 | 10420 ft | 285 kts | 259° |
| 2026-04-24 00:22 | 32.81756 | -97.53253 | 10610 ft | 308 kts | 270° |
| 2026-04-24 00:22 | 32.81885 | -97.55877 | 10808 ft | 326 kts | 271° |
| 2026-04-24 00:22 | 32.82013 | -97.58605 | 11253 ft | 335 kts | 271° |
| 2026-04-24 00:23 | 32.82200 | -97.61371 | 11997 ft | 335 kts | 279° |
| 2026-04-24 00:23 | 32.82984 | -97.63944 | 12807 ft | 340 kts | 296° |
| 2026-04-24 00:23 | 32.84346 | -97.66270 | 13558 ft | 345 kts | 304° |
| 2026-04-24 00:23 | 32.85831 | -97.68523 | 14211 ft | 348 kts | 304° |
| 2026-04-24 00:24 | 32.87328 | -97.70812 | 14823 ft | 352 kts | 304° |
| 2026-04-24 00:24 | 32.88810 | -97.73159 | 15436 ft | 354 kts | 300° |
| 2026-04-24 00:24 | 32.89862 | -97.75797 | 16078 ft | 353 kts | 289° |
| 2026-04-24 00:24 | 32.90735 | -97.78535 | 16728 ft | 356 kts | 289° |
| 2026-04-24 00:25 | 32.91616 | -97.81304 | 17341 ft | 359 kts | 289° |
| 2026-04-24 00:25 | 32.92500 | -97.84058 | 17943 ft | 362 kts | 289° |
| 2026-04-24 00:25 | 32.93411 | -97.86876 | 18477 ft | 366 kts | 289° |
| 2026-04-24 00:25 | 32.94332 | -97.89711 | 18988 ft | 368 kts | 289° |
| 2026-04-24 00:26 | 32.95263 | -97.92570 | 19529 ft | 370 kts | 289° |
| 2026-04-24 00:26 | 32.96200 | -97.95438 | 19939 ft | 373 kts | 289° |
| 2026-04-24 00:26 | 32.97143 | -97.98326 | 20472 ft | 375 kts | 289° |
| 2026-04-24 00:26 | 32.98091 | -98.01230 | 21007 ft | 378 kts | 289° |
| 2026-04-24 00:27 | 32.99048 | -98.04165 | 21522 ft | 380 kts | 289° |
| 2026-04-24 00:27 | 32.99995 | -98.07072 | 22029 ft | 383 kts | 289° |
| 2026-04-24 00:27 | 33.00961 | -98.10043 | 22499 ft | 386 kts | 289° |
| 2026-04-24 00:27 | 33.01933 | -98.13032 | 22977 ft | 388 kts | 289° |
| 2026-04-24 00:28 | 33.02914 | -98.16050 | 23430 ft | 391 kts | 289° |
| 2026-04-24 00:28 | 33.03897 | -98.19077 | 23861 ft | 392 kts | 289° |
| 2026-04-24 00:28 | 33.04880 | -98.22110 | 24297 ft | 392 kts | 289° |
| 2026-04-24 00:28 | 33.05866 | -98.25148 | 24743 ft | 393 kts | 289° |
| 2026-04-24 00:29 | 33.06856 | -98.28187 | 25161 ft | 394 kts | 289° |
| 2026-04-24 00:29 | 33.07852 | -98.31246 | 25562 ft | 396 kts | 289° |
| 2026-04-24 00:29 | 33.08848 | -98.34305 | 25977 ft | 397 kts | 289° |
| 2026-04-24 00:29 | 33.09847 | -98.37377 | 26397 ft | 397 kts | 289° |
| 2026-04-24 00:30 | 33.10847 | -98.40454 | 26805 ft | 398 kts | 289° |
| 2026-04-24 00:30 | 33.11845 | -98.43532 | 27197 ft | 398 kts | 289° |
| 2026-04-24 00:30 | 33.12845 | -98.46618 | 27620 ft | 399 kts | 289° |
| 2026-04-24 00:30 | 33.13845 | -98.49708 | 28001 ft | 400 kts | 289° |
| 2026-04-24 00:31 | 33.14833 | -98.52763 | 28348 ft | 401 kts | 289° |
| 2026-04-24 00:31 | 33.15835 | -98.55866 | 28748 ft | 400 kts | 289° |
| 2026-04-24 00:31 | 33.16836 | -98.58968 | 29280 ft | 397 kts | 289° |
| 2026-04-24 00:31 | 33.17826 | -98.62039 | 29884 ft | 392 kts | 289° |
| 2026-04-24 00:32 | 33.18800 | -98.65060 | 30354 ft | 389 kts | 289° |
| 2026-04-24 00:32 | 33.19768 | -98.68071 | 30705 ft | 388 kts | 289° |
| 2026-04-24 00:32 | 33.20738 | -98.71089 | 30994 ft | 389 kts | 289° |
| 2026-04-24 00:32 | 33.21707 | -98.74107 | 31368 ft | 388 kts | 289° |
| 2026-04-24 00:33 | 33.22657 | -98.77071 | 31668 ft | 388 kts | 289° |
| 2026-04-24 00:33 | 33.23625 | -98.80092 | 31679 ft | 388 kts | 289° |
| 2026-04-24 00:33 | 33.25551 | -98.86112 | 31679 ft | 387 kts | 289° |
| 2026-04-24 00:34 | 33.27473 | -98.92128 | 31670 ft | 387 kts | 289° |
| 2026-04-24 00:34 | 33.29389 | -98.98139 | 31661 ft | 387 kts | 289° |
| 2026-04-24 00:35 | 33.31289 | -99.04113 | 31669 ft | 386 kts | 289° |
| 2026-04-24 00:35 | 33.33200 | -99.10131 | 31673 ft | 386 kts | 289° |
| 2026-04-24 00:36 | 33.35107 | -99.16149 | 31671 ft | 387 kts | 288° |
| 2026-04-24 00:36 | 33.37009 | -99.22164 | 31650 ft | 387 kts | 288° |
| 2026-04-24 00:37 | 33.38911 | -99.28190 | 31638 ft | 387 kts | 288° |
| 2026-04-24 00:37 | 33.40798 | -99.34180 | 31638 ft | 387 kts | 288° |
| 2026-04-24 00:38 | 33.42694 | -99.40212 | 31630 ft | 387 kts | 288° |
| 2026-04-24 00:38 | 33.44588 | -99.46247 | 31620 ft | 387 kts | 288° |
| 2026-04-24 00:39 | 33.46475 | -99.52280 | 31626 ft | 387 kts | 287° |
| 2026-04-24 00:39 | 33.48215 | -99.58375 | 31628 ft | 386 kts | 286° |
| 2026-04-24 00:40 | 33.49894 | -99.64495 | 31626 ft | 387 kts | 286° |
| 2026-04-24 00:40 | 33.51574 | -99.70586 | 31623 ft | 387 kts | 286° |
| 2026-04-24 00:41 | 33.53276 | -99.76725 | 31617 ft | 387 kts | 286° |
| 2026-04-24 00:41 | 33.54975 | -99.82855 | 31618 ft | 388 kts | 286° |
| 2026-04-24 00:42 | 33.56676 | -99.88999 | 31631 ft | 388 kts | 285° |
| 2026-04-24 00:42 | 33.58359 | -99.95094 | 31617 ft | 387 kts | 285° |
| 2026-04-24 00:43 | 33.60049 | -100.01225 | 31601 ft | 386 kts | 285° |
| 2026-04-24 00:43 | 33.61728 | -100.07331 | 31599 ft | 385 kts | 285° |
| 2026-04-24 00:44 | 33.63390 | -100.13388 | 31598 ft | 384 kts | 285° |
| 2026-04-24 00:44 | 33.65059 | -100.19484 | 31606 ft | 388 kts | 285° |
| 2026-04-24 00:45 | 33.66870 | -100.25686 | 31604 ft | 399 kts | 288° |
| 2026-04-24 00:45 | 33.68972 | -100.31948 | 31603 ft | 407 kts | 289° |
| 2026-04-24 00:46 | 33.71119 | -100.38271 | 31590 ft | 410 kts | 289° |
| 2026-04-24 00:46 | 33.73236 | -100.44588 | 31592 ft | 410 kts | 288° |
| 2026-04-24 00:47 | 33.75349 | -100.50952 | 31594 ft | 410 kts | 288° |
| 2026-04-24 00:47 | 33.77452 | -100.57322 | 31604 ft | 410 kts | 288° |
| 2026-04-24 00:48 | 33.79549 | -100.63686 | 31606 ft | 408 kts | 288° |
| 2026-04-24 00:48 | 33.81630 | -100.70015 | 31602 ft | 406 kts | 288° |
| 2026-04-24 00:49 | 33.83688 | -100.76287 | 31600 ft | 405 kts | 288° |
| 2026-04-24 00:49 | 33.85754 | -100.82599 | 31602 ft | 404 kts | 288° |
| 2026-04-24 00:50 | 33.87812 | -100.88897 | 31613 ft | 405 kts | 288° |
| 2026-04-24 00:50 | 33.89874 | -100.95220 | 31605 ft | 405 kts | 288° |
| 2026-04-24 00:51 | 33.91932 | -101.01545 | 31609 ft | 406 kts | 288° |
| 2026-04-24 00:51 | 33.93979 | -101.07846 | 31612 ft | 406 kts | 288° |
| 2026-04-24 00:52 | 33.96035 | -101.14190 | 31614 ft | 406 kts | 288° |
| 2026-04-24 00:52 | 33.98083 | -101.20522 | 31621 ft | 406 kts | 288° |
| 2026-04-24 00:53 | 34.00130 | -101.26862 | 31615 ft | 406 kts | 288° |
| 2026-04-24 00:53 | 34.02172 | -101.33201 | 31613 ft | 405 kts | 287° |
| 2026-04-24 00:54 | 34.04194 | -101.39494 | 31657 ft | 405 kts | 287° |
| 2026-04-24 00:54 | 34.06231 | -101.45845 | 31687 ft | 406 kts | 287° |
| 2026-04-24 00:55 | 34.08268 | -101.52208 | 31717 ft | 406 kts | 287° |
| 2026-04-24 00:55 | 34.10301 | -101.58572 | 31749 ft | 406 kts | 287° |
| 2026-04-24 00:56 | 34.12316 | -101.64892 | 31763 ft | 406 kts | 287° |
| 2026-04-24 00:56 | 34.14344 | -101.71267 | 31775 ft | 406 kts | 287° |
| 2026-04-24 00:57 | 34.16364 | -101.77630 | 31766 ft | 405 kts | 287° |
| 2026-04-24 00:58 | 34.19387 | -101.87180 | 31749 ft | 405 kts | 287° |
| 2026-04-24 00:58 | 34.21381 | -101.93495 | 31724 ft | 405 kts | 287° |
| 2026-04-24 00:59 | 34.23386 | -101.99857 | 31697 ft | 405 kts | 287° |
| 2026-04-24 00:59 | 34.25390 | -102.06231 | 31678 ft | 405 kts | 286° |
| 2026-04-24 01:00 | 34.27391 | -102.12608 | 31664 ft | 406 kts | 286° |
| 2026-04-24 01:00 | 34.29394 | -102.19007 | 31678 ft | 407 kts | 286° |
| 2026-04-24 01:01 | 34.31384 | -102.25375 | 31672 ft | 407 kts | 286° |
| 2026-04-24 01:01 | 34.33388 | -102.31803 | 31675 ft | 408 kts | 286° |
| 2026-04-24 01:02 | 34.35389 | -102.38233 | 31688 ft | 408 kts | 286° |
| 2026-04-24 01:02 | 34.37381 | -102.44645 | 31709 ft | 406 kts | 287° |
| 2026-04-24 01:03 | 34.39357 | -102.51028 | 31704 ft | 403 kts | 287° |
| 2026-04-24 01:03 | 34.41305 | -102.57332 | 31708 ft | 401 kts | 287° |
| 2026-04-24 01:04 | 34.43252 | -102.63648 | 31716 ft | 399 kts | 287° |
| 2026-04-24 01:04 | 34.45192 | -102.69950 | 31724 ft | 399 kts | 287° |
| 2026-04-24 01:05 | 34.47128 | -102.76255 | 31718 ft | 399 kts | 287° |
| 2026-04-24 01:05 | 34.49052 | -102.82577 | 31734 ft | 399 kts | 284° |
| 2026-04-24 01:06 | 34.50170 | -102.89091 | 31737 ft | 397 kts | 276° |
| 2026-04-24 01:06 | 34.50953 | -102.95724 | 31745 ft | 398 kts | 276° |
| 2026-04-24 01:07 | 34.51758 | -103.02384 | 31739 ft | 399 kts | 276° |
| 2026-04-24 01:07 | 34.52568 | -103.09044 | 31746 ft | 399 kts | 276° |
| 2026-04-24 01:08 | 34.53371 | -103.15671 | 31743 ft | 400 kts | 275° |
| 2026-04-24 01:08 | 34.54179 | -103.22369 | 31714 ft | 403 kts | 275° |
| 2026-04-24 01:09 | 34.54991 | -103.29122 | 31704 ft | 404 kts | 275° |
| 2026-04-24 01:09 | 34.55663 | -103.34739 | 31707 ft | 405 kts | 275° |
| 2026-04-24 01:10 | 34.56604 | -103.42643 | 31663 ft | 405 kts | 275° |
| 2026-04-24 01:10 | 34.57271 | -103.48273 | 31663 ft | 405 kts | 275° |
| 2026-04-24 01:11 | 34.58070 | -103.55045 | 31651 ft | 406 kts | 274° |
| 2026-04-24 01:11 | 34.59070 | -103.61814 | 31654 ft | 411 kts | 281° |
| 2026-04-24 01:12 | 34.60740 | -103.68473 | 31639 ft | 413 kts | 283° |
| 2026-04-24 01:12 | 34.62460 | -103.75084 | 31640 ft | 413 kts | 282° |
| 2026-04-24 01:13 | 34.64144 | -103.81756 | 31631 ft | 413 kts | 282° |
| 2026-04-24 01:13 | 34.65795 | -103.88440 | 31635 ft | 413 kts | 282° |
| 2026-04-24 01:14 | 34.67435 | -103.95130 | 31626 ft | 413 kts | 282° |
| 2026-04-24 01:14 | 34.69068 | -104.01812 | 31676 ft | 412 kts | 282° |
| 2026-04-24 01:15 | 34.70680 | -104.08419 | 31631 ft | 408 kts | 282° |
| 2026-04-24 01:15 | 34.72287 | -104.15025 | 31625 ft | 405 kts | 282° |
| 2026-04-24 01:16 | 34.73878 | -104.21584 | 31626 ft | 404 kts | 282° |
| 2026-04-24 01:16 | 34.75460 | -104.28125 | 31641 ft | 404 kts | 282° |
| 2026-04-24 01:17 | 34.77052 | -104.34724 | 31690 ft | 408 kts | 282° |
| 2026-04-24 01:17 | 34.78650 | -104.41363 | 31735 ft | 409 kts | 282° |
| 2026-04-24 01:18 | 34.80247 | -104.48013 | 31770 ft | 409 kts | 282° |
| 2026-04-24 01:18 | 34.81828 | -104.54612 | 31803 ft | 409 kts | 282° |
| 2026-04-24 01:19 | 34.83411 | -104.61251 | 31835 ft | 408 kts | 281° |
| 2026-04-24 01:19 | 34.84297 | -104.68003 | 31835 ft | 403 kts | 273° |
| 2026-04-24 01:20 | 34.84841 | -104.74788 | 31824 ft | 402 kts | 273° |
| 2026-04-24 01:20 | 34.85409 | -104.81555 | 31805 ft | 400 kts | 273° |
| 2026-04-24 01:20 | 34.85706 | -104.84924 | 31464 ft | 402 kts | 274° |
| 2026-04-24 01:21 | 34.86005 | -104.88255 | 31035 ft | 400 kts | 274° |
| 2026-04-24 01:21 | 34.86311 | -104.91624 | 30579 ft | 399 kts | 274° |
| 2026-04-24 01:21 | 34.86618 | -104.95008 | 30054 ft | 404 kts | 274° |
| 2026-04-24 01:21 | 34.86927 | -104.98425 | 29493 ft | 408 kts | 274° |
| 2026-04-24 01:22 | 34.87237 | -105.01847 | 29065 ft | 398 kts | 274° |
| 2026-04-24 01:22 | 34.87531 | -105.05076 | 28917 ft | 371 kts | 274° |
| 2026-04-24 01:22 | 34.87807 | -105.08113 | 28714 ft | 350 kts | 274° |
| 2026-04-24 01:22 | 34.88068 | -105.11013 | 28063 ft | 342 kts | 274° |
| 2026-04-24 01:23 | 34.88323 | -105.13885 | 27140 ft | 341 kts | 274° |
| 2026-04-24 01:23 | 34.88576 | -105.16752 | 26251 ft | 340 kts | 275° |
| 2026-04-24 01:23 | 34.88829 | -105.19614 | 25452 ft | 339 kts | 275° |
| 2026-04-24 01:23 | 34.89079 | -105.22456 | 24747 ft | 335 kts | 275° |
| 2026-04-24 01:24 | 34.89327 | -105.25268 | 24101 ft | 331 kts | 275° |
| 2026-04-24 01:24 | 34.89569 | -105.28013 | 23719 ft | 324 kts | 275° |
| 2026-04-24 01:24 | 34.89807 | -105.30726 | 23328 ft | 321 kts | 275° |
| 2026-04-24 01:24 | 34.90040 | -105.33388 | 22901 ft | 318 kts | 275° |
| 2026-04-24 01:25 | 34.90273 | -105.36049 | 22552 ft | 313 kts | 275° |
| 2026-04-24 01:25 | 34.90502 | -105.38675 | 22203 ft | 309 kts | 275° |
| 2026-04-24 01:25 | 34.90728 | -105.41274 | 21836 ft | 306 kts | 275° |
| 2026-04-24 01:25 | 34.90951 | -105.43842 | 21495 ft | 303 kts | 275° |
| 2026-04-24 01:26 | 34.91172 | -105.46392 | 21167 ft | 301 kts | 275° |
| 2026-04-24 01:26 | 34.91387 | -105.48890 | 21075 ft | 295 kts | 275° |
| 2026-04-24 01:26 | 34.91602 | -105.51438 | 20829 ft | 309 kts | 275° |
| 2026-04-24 01:26 | 34.91820 | -105.54088 | 20591 ft | 318 kts | 275° |
| 2026-04-24 01:27 | 34.92041 | -105.56779 | 20335 ft | 319 kts | 275° |
| 2026-04-24 01:27 | 34.92258 | -105.59410 | 20012 ft | 314 kts | 274° |
| 2026-04-24 01:27 | 34.92475 | -105.62052 | 19631 ft | 311 kts | 274° |
| 2026-04-24 01:27 | 34.92689 | -105.64666 | 19267 ft | 308 kts | 274° |
| 2026-04-24 01:28 | 34.92902 | -105.67261 | 18887 ft | 306 kts | 273° |
| 2026-04-24 01:28 | 34.93112 | -105.69835 | 18522 ft | 304 kts | 273° |
| 2026-04-24 01:28 | 34.93320 | -105.72400 | 18149 ft | 303 kts | 273° |
| 2026-04-24 01:28 | 34.93527 | -105.74949 | 17730 ft | 301 kts | 273° |
| 2026-04-24 01:29 | 34.93731 | -105.77482 | 17332 ft | 299 kts | 273° |
| 2026-04-24 01:29 | 34.93933 | -105.79989 | 17014 ft | 295 kts | 273° |
| 2026-04-24 01:29 | 34.94133 | -105.82467 | 16723 ft | 291 kts | 274° |
| 2026-04-24 01:29 | 34.94328 | -105.84878 | 16794 ft | 283 kts | 273° |
| 2026-04-24 01:30 | 34.94517 | -105.87239 | 16338 ft | 285 kts | 273° |
| 2026-04-24 01:30 | 34.94710 | -105.89680 | 15634 ft | 290 kts | 274° |
| 2026-04-24 01:30 | 34.94904 | -105.92113 | 15243 ft | 289 kts | 274° |
| 2026-04-24 01:30 | 34.95098 | -105.94546 | 14889 ft | 287 kts | 274° |
| 2026-04-24 01:31 | 34.95289 | -105.96965 | 14525 ft | 286 kts | 274° |
| 2026-04-24 01:31 | 34.95480 | -105.99384 | 14155 ft | 286 kts | 274° |
| 2026-04-24 01:31 | 34.95653 | -106.01795 | 13822 ft | 284 kts | 272° |
| 2026-04-24 01:31 | 34.95706 | -106.04198 | 13574 ft | 285 kts | 270° |
| 2026-04-24 01:32 | 34.95718 | -106.06622 | 13304 ft | 292 kts | 270° |
| 2026-04-24 01:32 | 34.95728 | -106.09156 | 13016 ft | 298 kts | 271° |
| 2026-04-24 01:32 | 34.95743 | -106.11656 | 12739 ft | 298 kts | 271° |
| 2026-04-24 01:32 | 34.95764 | -106.14176 | 12467 ft | 296 kts | 271° |
| 2026-04-24 01:33 | 34.95788 | -106.16677 | 12206 ft | 292 kts | 271° |
| 2026-04-24 01:33 | 34.95812 | -106.19127 | 11948 ft | 286 kts | 271° |
| 2026-04-24 01:33 | 34.95834 | -106.21530 | 11699 ft | 280 kts | 271° |
| 2026-04-24 01:33 | 34.95713 | -106.23882 | 11466 ft | 276 kts | 265° |
| 2026-04-24 01:34 | 34.95477 | -106.26180 | 11230 ft | 271 kts | 264° |
| 2026-04-24 01:34 | 34.95240 | -106.28434 | 11004 ft | 266 kts | 265° |
| 2026-04-24 01:34 | 34.95019 | -106.30650 | 10783 ft | 261 kts | 265° |
| 2026-04-24 01:34 | 34.94811 | -106.32816 | 10625 ft | 250 kts | 265° |
| 2026-04-24 01:35 | 34.94616 | -106.34873 | 10429 ft | 240 kts | 266° |
| 2026-04-24 01:35 | 34.94428 | -106.36868 | 10148 ft | 234 kts | 267° |
| 2026-04-24 01:35 | 34.94401 | -106.38785 | 9905 ft | 224 kts | 284° |
| 2026-04-24 01:35 | 34.94941 | -106.40499 | 9812 ft | 203 kts | 298° |
| 2026-04-24 01:36 | 34.95647 | -106.41868 | 9572 ft | 183 kts | 303° |
| 2026-04-24 01:36 | 34.96329 | -106.43098 | 9473 ft | 169 kts | 302° |
| 2026-04-24 01:36 | 34.96958 | -106.44260 | 9212 ft | 162 kts | 302° |
| 2026-04-24 01:36 | 34.97506 | -106.45412 | 8971 ft | 148 kts | 300° |
| 2026-04-24 01:37 | 34.98022 | -106.46477 | 8582 ft | 146 kts | 300° |
| 2026-04-24 01:37 | 34.98575 | -106.47560 | 8028 ft | 149 kts | 301° |
| 2026-04-24 01:37 | 34.99234 | -106.48493 | 7830 ft | 144 kts | 316° |
| 2026-04-24 01:37 | 35.00015 | -106.49255 | 7528 ft | 144 kts | 317° |
| 2026-04-24 01:38 | 35.00815 | -106.49990 | 7346 ft | 144 kts | 320° |
| 2026-04-24 01:38 | 35.01629 | -106.50674 | 7130 ft | 142 kts | 320° |
| 2026-04-24 01:38 | 35.02429 | -106.51400 | 6822 ft | 143 kts | 316° |
| 2026-04-24 01:38 | 35.03172 | -106.52172 | 6595 ft | 137 kts | 310° |
| 2026-04-24 01:39 | 35.03805 | -106.53010 | 6353 ft | 136 kts | 307° |
| 2026-04-24 01:39 | 35.04276 | -106.54010 | 6107 ft | 134 kts | 283° |
| 2026-04-24 01:39 | 35.04403 | -106.55143 | 5915 ft | 139 kts | 270° |
| 2026-04-24 01:39 | 35.04404 | -106.56342 | 5750 ft | 140 kts | 268° |
| 2026-04-24 01:40 | 35.04407 | -106.57492 | 5552 ft | 134 kts | 269° |
| 2026-04-24 01:40 | 35.04413 | -106.58572 | 5509 ft | 116 kts | 271° |
| 2026-04-24 01:40 | 35.04418 | -106.59416 | 5491 ft | 78 kts | 270° |
| 2026-04-24 01:40 | 35.04421 | -106.59896 | 5488 ft | 35 kts | 270° |
| 2026-04-24 01:41 | 35.04422 | -106.60160 | 5492 ft | 29 kts | 270° |
| 2026-04-24 01:41 | 35.04426 | -106.60403 | 5490 ft | 28 kts | 268° |
| 2026-04-24 01:41 | 35.04426 | -106.60631 | 5489 ft | 26 kts | 270° |
| 2026-04-24 01:41 | 35.04427 | -106.60852 | 5483 ft | 27 kts | 271° |
| 2026-04-24 01:42 | 35.04365 | -106.61044 | 5477 ft | 22 kts | 216° |
| 2026-04-24 01:42 | 35.04265 | -106.61066 | 5478 ft | 12 kts | 186° |
| 2026-04-24 01:42 | 35.04247 | -106.61125 | 5473 ft | 8 kts | 269° |
| 2026-04-24 01:42 | 35.04247 | -106.61216 | 5471 ft | 15 kts | 268° |
| 2026-04-24 01:43 | 35.04239 | -106.61358 | 5466 ft | 13 kts | 241° |
| 2026-04-24 01:43 | 35.04129 | -106.61383 | 5468 ft | 21 kts | 181° |
| 2026-04-24 01:43 | 35.03948 | -106.61386 | 5464 ft | 29 kts | 181° |
| 2026-04-24 01:43 | 35.03759 | -106.61436 | 5469 ft | 27 kts | 206° |
| 2026-04-24 01:44 | 35.03625 | -106.61585 | 5466 ft | 25 kts | 225° |
| 2026-04-24 01:44 | 35.03506 | -106.61728 | 5466 ft | 23 kts | 226° |
| 2026-04-24 01:44 | 35.03393 | -106.61866 | 5462 ft | 23 kts | 225° |
| 2026-04-24 01:44 | 35.03283 | -106.61999 | 5459 ft | 22 kts | 225° |
| 2026-04-24 01:45 | 35.03183 | -106.62129 | 5457 ft | 12 kts | 253° |
| 2026-04-24 01:45 | 35.03198 | -106.62209 | 5459 ft | 9 kts | 262° |
| 2026-04-24 01:45 | 35.03178 | -106.62287 | 5462 ft | 8 kts | 289° |
| 2026-04-24 01:45 | 35.03204 | -106.62325 | 5463 ft | 2 kts | 316° |
| 2026-04-24 01:46 | 35.03206 | -106.62328 | 5463 ft | 0 kts | 317° |